Time;durP1;ratioP1;P1;durP2;ratioP2;P2;SDS_P1;SDS_P2;PMS_P1;PMS_P2;Temp;Humidity;BMP_temperature;BMP_pressure;BME280_temperature;BME280_humidity;BME280_pressure;Samples;Min_cycle;Max_cycle;Signal;HPM_P1;HPM_P2
2021/07/12 00:00:37;;;;;;;0.45;0.20;;;19.30;99.90;;;;;;5018431;28;20029;-83
2021/07/12 00:03:05;;;;;;;0.17;0.10;;;19.20;99.90;;;;;;5032660;28;20033;-84
2021/07/12 00:05:31;;;;;;;0.10;0.10;;;19.00;99.90;;;;;;5027536;28;20030;-83
2021/07/12 00:07:57;;;;;;;0.30;0.30;;;19.00;99.90;;;;;;5023339;28;20033;-84
2021/07/12 00:10:25;;;;;;;0.00;0.00;;;18.90;99.90;;;;;;5012575;28;20040;-84
2021/07/12 00:12:53;;;;;;;0.57;0.55;;;19.00;99.90;;;;;;5023808;28;20284;-84
2021/07/12 00:15:20;;;;;;;1.65;0.80;;;19.00;99.90;;;;;;5030711;28;20034;-84
2021/07/12 00:17:47;;;;;;;0.00;0.00;;;18.90;99.90;;;;;;5024020;28;20136;-83
2021/07/12 00:20:14;;;;;;;0.20;0.20;;;19.00;99.90;;;;;;5029556;28;20400;-83
2021/07/12 00:22:42;;;;;;;0.00;0.00;;;18.90;99.90;;;;;;5023836;28;20726;-83
2021/07/12 00:25:09;;;;;;;0.00;0.00;;;18.80;99.90;;;;;;5020388;28;20038;-83
2021/07/12 00:27:36;;;;;;;0.13;0.13;;;18.60;99.90;;;;;;5011587;28;20022;-84
2021/07/12 00:30:04;;;;;;;0.10;0.10;;;18.70;99.90;;;;;;5018624;28;20413;-84
2021/07/12 00:32:30;;;;;;;0.68;0.20;;;18.70;99.90;;;;;;5015830;28;20116;-85
2021/07/12 00:34:56;;;;;;;0.30;0.30;;;18.80;99.90;;;;;;5015667;28;20033;-84
2021/07/12 00:37:22;;;;;;;0.10;0.10;;;18.80;99.90;;;;;;5031430;28;20026;-84
2021/07/12 00:39:48;;;;;;;0.00;0.00;;;18.70;99.90;;;;;;5029156;28;21029;-84
2021/07/12 00:42:14;;;;;;;0.20;0.20;;;18.70;99.90;;;;;;5026613;28;20506;-84
2021/07/12 00:44:41;;;;;;;1.50;0.73;;;18.70;99.90;;;;;;5029254;28;20099;-84
2021/07/12 00:47:07;;;;;;;0.13;0.13;;;18.70;99.90;;;;;;5013328;28;20437;-84
2021/07/12 00:49:34;;;;;;;0.22;0.22;;;18.70;99.90;;;;;;5016538;28;20029;-84
2021/07/12 00:52:00;;;;;;;;;;;18.70;99.90;;;;;;5031748;28;20140;-85
2021/07/12 00:54:29;;;;;;;0.20;0.20;;;18.60;99.90;;;;;;5025077;28;19999;-84
2021/07/12 00:56:56;;;;;;;0.10;0.10;;;18.60;99.90;;;;;;5023973;28;20034;-85
2021/07/12 00:59:22;;;;;;;0.10;0.10;;;18.60;99.90;;;;;;5023308;28;20083;-85
2021/07/12 01:01:48;;;;;;;0.25;0.25;;;18.60;99.90;;;;;;5021630;28;20032;-85
2021/07/12 01:04:14;;;;;;;1.20;0.20;;;18.60;99.90;;;;;;5026686;28;20045;-85
2021/07/12 01:06:40;;;;;;;0.17;0.17;;;18.40;99.90;;;;;;5019059;28;20029;-85
2021/07/12 01:09:06;;;;;;;0.00;0.00;;;18.30;99.90;;;;;;5027215;28;20429;-85
2021/07/12 01:12:05;;;;;;;0.40;0.30;;;18.40;99.90;;;;;;5018198;28;20064;-86
2021/07/12 01:15:10;;;;;;;0.00;0.00;;;18.40;99.90;;;;;;5029577;28;20083;-85
2021/07/12 01:18:10;;;;;;;0.00;0.00;;;18.30;99.90;;;;;;4961782;28;20043;-85
2021/07/12 01:21:19;;;;;;;0.93;0.30;;;18.30;99.90;;;;;;4978817;28;20066;-85
2021/07/12 01:24:06;;;;;;;0.52;0.45;;;18.10;99.90;;;;;;4969103;28;20049;-85
2021/07/12 01:26:55;;;;;;;0.20;0.20;;;17.90;99.90;;;;;;4967891;28;20054;-84
2021/07/12 01:29:31;;;;;;;0.15;0.15;;;17.90;99.90;;;;;;4966873;28;20042;-85
2021/07/12 01:32:01;;;;;;;0.00;0.00;;;17.90;99.90;;;;;;4969272;28;20066;-85
2021/07/12 01:34:33;;;;;;;0.00;0.00;;;17.90;99.90;;;;;;4961883;28;20054;-84
2021/07/12 01:37:08;;;;;;;0.03;0.03;;;17.90;99.90;;;;;;4954962;28;20031;-84
2021/07/12 01:39:45;;;;;;;0.00;0.00;;;17.90;99.90;;;;;;4968519;28;20531;-84
2021/07/12 01:42:21;;;;;;;;;;;18.20;99.90;;;;;;4967460;28;20057;-85
2021/07/12 01:45:10;;;;;;;0.13;0.13;;;18.30;99.90;;;;;;4983435;28;19921;-85
2021/07/12 01:48:06;;;;;;;0.45;0.20;;;18.40;99.90;;;;;;4965868;28;20038;-84
2021/07/12 01:51:12;;;;;;;0.22;0.22;;;18.50;99.90;;;;;;4967637;28;20060;-84
2021/07/12 01:54:14;;;;;;;0.17;0.13;;;18.30;99.90;;;;;;4972534;28;20054;-84
2021/07/12 01:56:57;;;;;;;0.10;0.10;;;18.20;99.90;;;;;;4999162;28;20026;-84
2021/07/12 01:59:32;;;;;;;0.10;0.10;;;18.10;99.90;;;;;;4999696;28;20049;-84
2021/07/12 02:01:58;;;;;;;0.00;0.00;;;18.00;99.90;;;;;;4977819;28;20027;-84
2021/07/12 02:04:26;;;;;;;;;;;17.90;99.90;;;;;;5007535;28;20052;-84
2021/07/12 02:06:53;;;;;;;0.30;0.10;;;18.10;99.90;;;;;;5005975;28;19917;-84
2021/07/12 02:09:20;;;;;;;0.10;0.10;;;18.10;99.90;;;;;;4990131;28;20775;-84
2021/07/12 02:11:47;;;;;;;0.00;0.00;;;18.10;99.90;;;;;;5006800;28;20121;-83
2021/07/12 02:14:18;;;;;;;0.40;0.30;;;18.10;99.90;;;;;;4997143;28;20457;-84
2021/07/12 02:16:45;;;;;;;0.30;0.10;;;18.10;99.90;;;;;;5000747;28;20048;-84
2021/07/12 02:19:12;;;;;;;0.28;0.28;;;18.10;99.90;;;;;;4972235;28;20625;-84
2021/07/12 02:21:39;;;;;;;0.15;0.15;;;18.20;99.90;;;;;;4992720;28;20510;-85
2021/07/12 02:24:06;;;;;;;0.38;0.38;;;18.00;99.90;;;;;;5003179;28;20052;-84
2021/07/12 02:26:32;;;;;;;;;;;18.10;99.90;;;;;;5023241;28;20030;-85
2021/07/12 02:29:04;;;;;;;0.10;0.10;;;18.10;99.90;;;;;;5046163;28;20006;-85
2021/07/12 02:31:31;;;;;;;0.30;0.17;;;18.20;99.90;;;;;;5016155;28;20040;-85
2021/07/12 02:33:59;;;;;;;0.35;0.35;;;18.00;99.90;;;;;;5011976;28;20038;-84
2021/07/12 02:36:27;;;;;;;0.30;0.30;;;18.10;99.90;;;;;;5023579;28;20057;-85
2021/07/12 02:38:55;;;;;;;0.10;0.10;;;18.20;99.90;;;;;;5023343;28;20037;-84
2021/07/12 02:41:22;;;;;;;0.10;0.10;;;18.20;99.90;;;;;;5025840;28;20016;-85
2021/07/12 02:43:49;;;;;;;0.00;0.00;;;18.10;99.90;;;;;;5034321;28;20033;-85
2021/07/12 02:46:15;;;;;;;0.08;0.08;;;18.20;99.90;;;;;;5028969;28;20512;-85
2021/07/12 02:48:42;;;;;;;0.10;0.10;;;18.30;99.90;;;;;;5027685;28;20120;-85
2021/07/12 02:51:13;;;;;;;0.17;0.17;;;18.30;99.90;;;;;;5009298;28;20033;-84
2021/07/12 02:53:53;;;;;;;0.00;0.00;;;18.40;99.90;;;;;;5013283;28;20042;-84
2021/07/12 02:56:19;;;;;;;0.20;0.20;;;18.30;99.90;;;;;;5012227;28;20062;-84
2021/07/12 02:58:45;;;;;;;0.10;0.10;;;18.30;99.90;;;;;;5024050;28;20030;-83
2021/07/12 03:01:11;;;;;;;;;;;18.10;99.90;;;;;;5022194;28;20029;-85
2021/07/12 03:03:37;;;;;;;0.70;0.43;;;18.00;99.90;;;;;;5011227;28;19913;-84
2021/07/12 03:06:14;;;;;;;0.10;0.10;;;18.10;99.90;;;;;;5021113;28;20415;-84
2021/07/12 03:08:58;;;;;;;0.40;0.40;;;18.10;99.90;;;;;;5017258;28;20030;-84
2021/07/12 03:11:32;;;;;;;1.77;0.35;;;18.10;99.90;;;;;;5010956;28;20116;-84
2021/07/12 03:14:21;;;;;;;1.65;0.28;;;18.10;99.90;;;;;;5018071;28;20116;-84
2021/07/12 03:16:49;;;;;;;0.52;0.20;;;18.10;99.90;;;;;;5018969;28;20049;-84
2021/07/12 03:19:25;;;;;;;0.40;0.40;;;18.10;99.90;;;;;;5027465;28;20029;-85
2021/07/12 03:21:53;;;;;;;0.00;0.00;;;17.80;99.90;;;;;;5021681;28;20112;-85
2021/07/12 03:24:20;;;;;;;0.30;0.30;;;17.80;99.90;;;;;;5014808;28;20032;-84
2021/07/12 03:26:52;;;;;;;0.20;0.20;;;17.70;99.90;;;;;;5012490;28;20429;-84
2021/07/12 03:29:19;;;;;;;0.68;0.32;;;17.50;99.90;;;;;;5010632;28;20112;-84
2021/07/12 03:31:45;;;;;;;0.00;0.00;;;17.20;99.90;;;;;;5017936;28;20414;-84
2021/07/12 03:34:13;;;;;;;0.10;0.10;;;17.20;99.90;;;;;;5018563;28;20521;-85
2021/07/12 03:36:40;;;;;;;0.40;0.17;;;17.40;99.90;;;;;;5023818;28;20037;-84
2021/07/12 03:39:06;;;;;;;0.10;0.10;;;17.50;99.90;;;;;;5023912;28;20030;-84
2021/07/12 03:41:34;;;;;;;0.20;0.20;;;17.30;99.90;;;;;;5017531;28;20029;-85
2021/07/12 03:44:00;;;;;;;0.20;0.20;;;17.30;99.90;;;;;;5024132;28;20049;-84
2021/07/12 03:46:28;;;;;;;0.25;0.20;;;17.40;99.90;;;;;;5013131;28;20406;-84
2021/07/12 03:48:53;;;;;;;0.13;0.13;;;17.40;99.90;;;;;;5022282;28;20117;-84
2021/07/12 03:51:24;;;;;;;0.10;0.10;;;17.40;99.90;;;;;;5026183;28;20100;-84
2021/07/12 03:53:50;;;;;;;0.10;0.10;;;17.30;99.90;;;;;;5012526;28;20038;-84
2021/07/12 03:56:16;;;;;;;0.03;0.03;;;17.40;99.90;;;;;;5018131;28;20548;-85
2021/07/12 03:58:43;;;;;;;0.20;0.20;;;17.50;99.90;;;;;;5019290;28;20534;-84
2021/07/12 04:01:08;;;;;;;0.00;0.00;;;17.40;99.90;;;;;;5014160;28;20338;-84
2021/07/12 04:03:34;;;;;;;0.00;0.00;;;17.50;99.90;;;;;;5022389;28;20041;-84
2021/07/12 04:06:00;;;;;;;0.00;0.00;;;17.30;99.90;;;;;;5029167;28;20048;-84
2021/07/12 04:08:26;;;;;;;0.10;0.10;;;17.30;99.90;;;;;;5013793;28;20453;-84
2021/07/12 04:10:52;;;;;;;0.07;0.07;;;17.40;99.90;;;;;;5036787;28;20516;-84
2021/07/12 04:13:18;;;;;;;0.45;0.30;;;17.40;99.90;;;;;;5031788;28;20033;-84
2021/07/12 04:15:45;;;;;;;0.13;0.13;;;17.30;99.90;;;;;;5016777;28;20049;-84
2021/07/12 04:18:11;;;;;;;0.45;0.45;;;17.00;99.90;;;;;;5025605;28;20033;-84
2021/07/12 04:20:38;;;;;;;0.00;0.00;;;17.00;99.90;;;;;;5024716;28;20037;-85
2021/07/12 04:23:04;;;;;;;0.00;0.00;;;17.20;99.90;;;;;;5020351;28;20037;-84
2021/07/12 04:25:30;;;;;;;0.20;0.20;;;17.30;99.90;;;;;;5023311;28;20254;-84
2021/07/12 04:27:57;;;;;;;0.00;0.00;;;17.40;99.90;;;;;;5027358;28;20022;-84
2021/07/12 04:30:24;;;;;;;0.10;0.10;;;17.50;99.90;;;;;;5030097;28;20029;-84
2021/07/12 04:32:49;;;;;;;;;;;17.60;99.90;;;;;;5018992;28;20136;-83
2021/07/12 04:35:15;;;;;;;0.10;0.10;;;17.70;99.90;;;;;;5018794;28;20051;-83
2021/07/12 04:37:42;;;;;;;0.10;0.10;;;17.80;99.90;;;;;;5021589;28;20057;-84
2021/07/12 04:40:09;;;;;;;1.00;0.65;;;17.80;99.90;;;;;;5011954;28;20029;-84
2021/07/12 04:42:35;;;;;;;0.15;0.15;;;17.60;99.90;;;;;;5021125;28;20059;-86
2021/07/12 04:45:02;;;;;;;0.13;0.13;;;17.20;99.90;;;;;;5025296;28;20119;-86
2021/07/12 04:47:29;;;;;;;0.80;0.30;;;17.20;99.90;;;;;;5019183;28;20033;-86
2021/07/12 04:49:55;;;;;;;0.10;0.10;;;17.10;99.90;;;;;;5020557;28;20397;-87
2021/07/12 04:52:20;;;;;;;0.07;0.07;;;17.10;99.90;;;;;;5052491;28;20547;-86
2021/07/12 04:54:46;;;;;;;0.00;0.00;;;17.10;99.90;;;;;;5016878;28;20281;-86
2021/07/12 04:57:12;;;;;;;0.00;0.00;;;17.30;99.90;;;;;;5022872;28;20027;-86
2021/07/12 04:59:39;;;;;;;0.30;0.30;;;17.50;99.90;;;;;;5027666;28;20497;-85
2021/07/12 05:02:06;;;;;;;0.15;0.15;;;17.50;99.90;;;;;;5027312;28;20044;-86
2021/07/12 05:04:33;;;;;;;0.25;0.25;;;17.40;99.90;;;;;;5030239;28;20022;-87
2021/07/12 05:07:00;;;;;;;0.32;0.32;;;17.40;99.90;;;;;;5017013;28;20025;-86
2021/07/12 05:09:26;;;;;;;0.10;0.10;;;17.40;99.90;;;;;;5019095;28;20029;-88
2021/07/12 05:11:52;;;;;;;0.20;0.17;;;17.50;99.90;;;;;;5019445;28;20040;-87
2021/07/12 05:14:19;;;;;;;0.15;0.15;;;17.80;99.90;;;;;;5026788;28;20372;-87
2021/07/12 05:16:45;;;;;;;1.20;0.35;;;17.70;99.90;;;;;;5021691;28;20026;-90
2021/07/12 05:19:14;;;;;;;0.20;0.20;;;17.80;99.90;;;;;;5027754;28;20029;-88
2021/07/12 05:21:41;;;;;;;5.68;0.88;;;17.80;99.90;;;;;;5021693;28;20030;-87
2021/07/12 05:24:07;;;;;;;0.10;0.10;;;17.80;99.90;;;;;;5013937;28;20034;-89
2021/07/12 05:26:33;;;;;;;0.17;0.17;;;17.90;99.90;;;;;;5012860;28;20064;-89
2021/07/12 05:28:59;;;;;;;0.13;0.13;;;17.80;99.90;;;;;;5019644;28;20449;-89
2021/07/12 05:31:25;;;;;;;0.77;0.63;;;17.70;99.90;;;;;;5011000;28;20038;-87
2021/07/12 05:33:50;;;;;;;0.10;0.10;;;17.80;99.90;;;;;;5013607;28;20026;-88
2021/07/12 05:36:16;;;;;;;0.30;0.30;;;17.70;99.90;;;;;;5031851;28;20030;-88
2021/07/12 05:38:42;;;;;;;0.20;0.20;;;17.50;99.90;;;;;;5016923;28;20010;-87
2021/07/12 05:41:08;;;;;;;0.40;0.20;;;17.60;99.90;;;;;;5019390;28;20061;-87
2021/07/12 05:43:34;;;;;;;0.13;0.13;;;17.70;99.90;;;;;;5025606;28;20036;-87
2021/07/12 05:46:00;;;;;;;0.30;0.30;;;17.60;99.90;;;;;;5024740;28;20045;-86
2021/07/12 05:48:27;;;;;;;0.10;0.10;;;17.50;99.90;;;;;;5022135;28;20033;-87
2021/07/12 05:50:53;;;;;;;0.08;0.08;;;17.60;99.90;;;;;;5020821;28;20432;-89
2021/07/12 05:53:19;;;;;;;0.20;0.20;;;17.60;99.90;;;;;;5030737;28;20032;-89
2021/07/12 05:55:45;;;;;;;0.30;0.30;;;17.70;99.90;;;;;;5020080;28;20044;-90
2021/07/12 05:58:11;;;;;;;0.03;0.03;;;17.70;99.90;;;;;;5022009;28;20037;-88
2021/07/12 06:00:37;;;;;;;0.20;0.20;;;17.80;99.90;;;;;;5026672;28;20034;-90
2021/07/12 06:03:03;;;;;;;5.80;1.23;;;17.70;99.90;;;;;;5026208;28;20033;-89
2021/07/12 06:05:30;;;;;;;0.00;0.00;;;17.70;99.90;;;;;;5044311;28;20469;-89
2021/07/12 06:07:56;;;;;;;2.72;0.52;;;17.80;99.90;;;;;;5027721;28;20021;-89
2021/07/12 06:10:22;;;;;;;0.10;0.10;;;17.70;99.90;;;;;;5029642;28;20502;-90
2021/07/12 06:12:48;;;;;;;0.08;0.08;;;17.80;99.90;;;;;;5031517;28;20034;-91
2021/07/12 06:15:14;;;;;;;0.00;0.00;;;17.80;99.90;;;;;;5031995;28;20855;-91
2021/07/12 06:17:41;;;;;;;0.32;0.32;;;17.70;99.90;;;;;;5031195;28;20490;-93
2021/07/12 06:20:08;;;;;;;;;;;17.70;99.90;;;;;;5016971;28;20026;-89
2021/07/12 06:22:34;;;;;;;;;;;17.20;99.90;;;;;;5022616;28;20312;-91
2021/07/12 06:25:00;;;;;;;5.63;2.20;;;17.20;96.50;;;;;;5008956;28;19913;-90
2021/07/12 06:27:26;;;;;;;0.20;0.20;;;17.10;99.90;;;;;;5008732;28;20448;-89
2021/07/12 06:29:53;;;;;;;0.30;0.30;;;17.10;99.90;;;;;;5009615;28;20264;-91
2021/07/12 06:32:18;;;;;;;0.38;0.38;;;17.20;37.50;;;;;;5015123;28;20025;-92
2021/07/12 06:34:44;;;;;;;0.40;0.30;;;17.30;99.90;;;;;;5011452;28;20389;-92
2021/07/12 06:37:10;;;;;;;0.93;0.87;;;17.30;99.90;;;;;;5012532;28;20022;-91
2021/07/12 06:39:36;;;;;;;0.73;0.55;;;17.20;99.90;;;;;;5011204;28;20022;-92
2021/07/12 06:42:03;;;;;;;0.20;0.20;;;17.10;99.90;;;;;;5019339;28;20037;-92
2021/07/12 06:44:29;;;;;;;0.40;0.35;;;17.10;99.90;;;;;;5017296;28;20033;-91
2021/07/12 06:46:54;;;;;;;0.30;0.30;;;17.20;99.90;;;;;;5030796;28;20519;-92
2021/07/12 06:49:20;;;;;;;0.53;0.50;;;17.10;1.00;;;;;;5032090;28;20032;-92
2021/07/12 06:51:46;;;;;;;0.20;0.20;;;17.40;1.00;;;;;;5030887;28;20033;-90
2021/07/12 06:54:12;;;;;;;0.43;0.30;;;17.50;92.30;;;;;;5030839;28;20038;-90
2021/07/12 06:56:38;;;;;;;0.20;0.10;;;17.40;99.90;;;;;;5031341;28;20351;-92
2021/07/12 06:59:03;;;;;;;0.10;0.10;;;17.40;99.90;;;;;;5030861;28;20132;-91
2021/07/12 07:01:29;;;;;;;0.20;0.20;;;17.50;99.90;;;;;;5031207;28;20031;-89
2021/07/12 07:03:55;;;;;;;1.25;0.95;;;17.50;99.90;;;;;;5045140;28;20095;-91
2021/07/12 07:06:21;;;;;;;0.10;0.10;;;17.50;99.90;;;;;;5051946;28;20115;-90
2021/07/12 07:08:47;;;;;;;0.57;0.53;;;17.50;99.90;;;;;;5040547;28;20125;-90
2021/07/12 07:11:12;;;;;;;0.20;0.20;;;17.50;99.90;;;;;;5054929;28;20024;-92
2021/07/12 07:13:38;;;;;;;17.90;0.47;;;17.30;99.90;;;;;;5056499;28;20039;-94
2021/07/12 07:16:06;;;;;;;0.00;0.00;;;17.40;99.90;;;;;;5057783;28;20040;-91
2021/07/12 07:18:32;;;;;;;0.30;0.30;;;17.40;99.90;;;;;;5053959;28;20452;-85
2021/07/12 07:20:59;;;;;;;0.00;0.00;;;17.50;99.90;;;;;;5021607;28;20045;-87
2021/07/12 07:23:27;;;;;;;0.10;0.10;;;17.30;99.90;;;;;;5023177;28;20021;-88
2021/07/12 07:25:53;;;;;;;0.10;0.10;;;17.10;99.90;;;;;;5020778;28;20037;-88
2021/07/12 07:28:19;;;;;;;4.40;0.73;;;17.10;99.90;;;;;;5026618;28;20029;-88
2021/07/12 07:30:46;;;;;;;0.10;0.10;;;17.10;99.90;;;;;;5025856;28;20917;-87
2021/07/12 07:33:14;;;;;;;0.30;0.17;;;17.30;99.90;;;;;;5021881;28;20102;-87
2021/07/12 07:35:41;;;;;;;0.15;0.15;;;17.20;99.90;;;;;;5039038;28;20026;-88
2021/07/12 07:38:07;;;;;;;0.10;0.10;;;17.30;99.90;;;;;;5027391;28;20533;-88
2021/07/12 07:40:33;;;;;;;0.00;0.00;;;17.50;99.90;;;;;;5023120;28;20025;-87
2021/07/12 07:42:59;;;;;;;0.43;0.43;;;17.50;99.90;;;;;;5015182;28;20792;-87
2021/07/12 07:45:27;;;;;;;0.10;0.10;;;17.50;99.90;;;;;;5026686;28;20264;-87
2021/07/12 07:47:52;;;;;;;0.00;0.00;;;17.60;99.90;;;;;;5014686;28;20137;-88
2021/07/12 07:50:20;;;;;;;0.10;0.10;;;17.60;99.90;;;;;;5022470;28;20053;-88
2021/07/12 07:52:47;;;;;;;1.85;0.50;;;17.90;99.90;;;;;;5015654;28;20099;-88
2021/07/12 07:55:13;;;;;;;0.00;0.00;;;17.90;99.90;;;;;;5012151;28;20033;-87
2021/07/12 07:57:41;;;;;;;0.17;0.17;;;17.90;99.90;;;;;;5021165;28;20053;-88
2021/07/12 08:00:11;;;;;;;0.10;0.10;;;18.70;99.90;;;;;;5020002;28;20075;-88
2021/07/12 08:02:37;;;;;;;0.20;0.20;;;18.70;99.90;;;;;;5015991;28;20052;-87
2021/07/12 08:05:06;;;;;;;0.10;0.10;;;18.60;99.90;;;;;;5027832;28;20029;-87
2021/07/12 08:07:33;;;;;;;0.30;0.30;;;18.50;99.90;;;;;;5022888;28;20823;-88
2021/07/12 08:09:59;;;;;;;;;;;18.90;99.90;;;;;;5022984;28;20036;-88
2021/07/12 08:12:25;;;;;;;0.00;0.00;;;19.40;99.90;;;;;;5023160;28;19909;-88
2021/07/12 08:14:51;;;;;;;;;;;19.50;99.90;;;;;;5018212;28;20295;-88
2021/07/12 08:17:18;;;;;;;0.22;0.22;;;19.50;99.90;;;;;;5017785;28;19920;-88
2021/07/12 08:19:43;;;;;;;0.10;0.10;;;19.50;99.90;;;;;;5019913;28;20034;-88
2021/07/12 08:22:09;;;;;;;0.30;0.30;;;19.30;99.90;;;;;;5015048;28;20076;-87
2021/07/12 08:24:36;;;;;;;0.00;0.00;;;19.30;99.90;;;;;;5018316;28;20030;-88
2021/07/12 08:27:02;;;;;;;0.03;0.03;;;19.30;99.90;;;;;;5022684;28;20061;-87
2021/07/12 08:29:29;;;;;;;0.00;0.00;;;19.50;99.90;;;;;;5022827;28;20037;-88
2021/07/12 08:31:54;;;;;;;0.20;0.20;;;19.40;99.90;;;;;;5040089;28;20116;-88
2021/07/12 08:34:21;;;;;;;0.00;0.00;;;19.70;99.90;;;;;;5017190;28;20109;-88
2021/07/12 08:36:48;;;;;;;0.00;0.00;;;19.60;99.90;;;;;;5025964;28;20026;-88
2021/07/12 08:39:14;;;;;;;0.00;0.00;;;19.70;99.90;;;;;;5015080;28;20029;-88
2021/07/12 08:41:39;;;;;;;0.30;0.30;;;19.90;99.90;;;;;;5018896;28;20028;-88
2021/07/12 08:44:06;;;;;;;0.00;0.00;;;19.50;99.90;;;;;;5019766;28;20064;-89
2021/07/12 08:46:34;;;;;;;0.35;0.32;;;19.60;99.90;;;;;;5029694;28;20458;-89
2021/07/12 08:49:00;;;;;;;0.10;0.10;;;19.40;99.90;;;;;;5018983;28;20055;-89
2021/07/12 08:51:26;;;;;;;0.00;0.00;;;19.50;99.90;;;;;;5013928;28;20034;-89
2021/07/12 08:53:53;;;;;;;0.38;0.28;;;19.40;99.90;;;;;;5018039;28;20049;-89
2021/07/12 08:56:19;;;;;;;0.00;0.00;;;19.60;99.90;;;;;;5022801;28;20076;-89
2021/07/12 08:58:45;;;;;;;0.38;0.10;;;19.60;99.90;;;;;;5042781;28;20453;-90
2021/07/12 09:01:11;;;;;;;0.10;0.10;;;19.50;99.90;;;;;;5024473;28;20447;-90
2021/07/12 09:03:39;;;;;;;0.00;0.00;;;19.50;99.90;;;;;;5014682;28;20116;-90
2021/07/12 09:06:12;;;;;;;0.10;0.10;;;19.40;99.90;;;;;;5023325;28;20039;-88
2021/07/12 09:08:52;;;;;;;0.17;0.17;;;19.50;99.90;;;;;;5021801;28;20112;-89
2021/07/12 09:11:33;;;;;;;0.00;0.00;;;20.00;99.90;;;;;;5016914;28;20106;-88
2021/07/12 09:14:03;;;;;;;0.10;0.10;;;20.10;99.90;;;;;;5013253;28;20552;-89
2021/07/12 09:16:37;;;;;;;0.00;0.00;;;20.00;99.90;;;;;;5026539;28;20497;-89
2021/07/12 09:19:12;;;;;;;0.00;0.00;;;20.10;99.90;;;;;;5021021;28;20459;-88
2021/07/12 09:21:53;;;;;;;0.55;0.20;;;20.70;99.90;;;;;;5013180;28;20133;-88
2021/07/12 09:24:26;;;;;;;0.25;0.25;;;21.00;99.90;;;;;;5013465;28;20084;-88
2021/07/12 09:27:00;;;;;;;0.00;0.00;;;20.90;99.90;;;;;;5017826;28;20032;-87
2021/07/12 09:29:57;;;;;;;0.08;0.08;;;20.90;99.90;;;;;;5016450;28;20191;-88
2021/07/12 09:32:27;;;;;;;0.10;0.10;;;20.50;99.90;;;;;;5014746;28;20401;-88
2021/07/12 09:35:01;;;;;;;0.10;0.10;;;20.40;99.90;;;;;;5025392;28;20486;-88
2021/07/12 09:37:27;;;;;;;0.00;0.00;;;20.10;99.90;;;;;;5013108;28;20022;-88
2021/07/12 09:39:55;;;;;;;0.08;0.00;;;20.00;99.90;;;;;;5021702;28;20409;-88
2021/07/12 09:42:25;;;;;;;0.10;0.10;;;20.10;99.90;;;;;;5024340;28;20026;-89
2021/07/12 09:44:56;;;;;;;0.00;0.00;;;20.00;99.90;;;;;;5032702;28;20025;-89
2021/07/12 09:47:24;;;;;;;0.10;0.10;;;19.90;99.90;;;;;;5033254;28;20036;-87
2021/07/12 09:49:59;;;;;;;0.08;0.08;;;20.00;99.90;;;;;;5016365;28;20548;-89
2021/07/12 09:52:25;;;;;;;0.28;0.10;;;19.90;99.90;;;;;;5013594;28;20069;-89
2021/07/12 09:54:52;;;;;;;0.63;0.50;;;20.00;99.90;;;;;;5014379;28;20528;-88
2021/07/12 09:57:23;;;;;;;0.40;0.40;;;19.90;99.90;;;;;;5016668;28;20049;-88
2021/07/12 09:59:58;;;;;;;0.10;0.10;;;19.70;99.90;;;;;;5010968;28;20029;-88
2021/07/12 10:02:27;;;;;;;0.17;0.17;;;19.60;99.90;;;;;;5011436;28;20031;-88
2021/07/12 10:05:01;;;;;;;0.10;0.10;;;19.60;99.90;;;;;;5013305;28;20043;-88
2021/07/12 10:07:27;;;;;;;0.00;0.00;;;19.80;99.90;;;;;;5018233;28;20036;-87
2021/07/12 10:09:53;;;;;;;0.00;0.00;;;20.00;99.90;;;;;;5011198;28;20060;-87
2021/07/12 10:12:19;;;;;;;0.00;0.00;;;19.90;99.90;;;;;;5008490;28;20065;-89
2021/07/12 10:14:46;;;;;;;0.65;0.65;;;19.90;99.90;;;;;;5012923;28;20123;-89
2021/07/12 10:17:12;;;;;;;0.00;0.00;;;20.20;99.90;;;;;;5013191;28;20025;-88
2021/07/12 10:19:38;;;;;;;;;;;20.30;99.90;;;;;;5020356;28;20030;-88
2021/07/12 10:22:05;;;;;;;0.10;0.10;;;20.40;99.90;;;;;;5041604;28;19964;-89
2021/07/12 10:24:40;;;;;;;0.03;0.03;;;20.10;99.90;;;;;;5037870;28;20033;-89
2021/07/12 10:27:17;;;;;;;0.05;0.05;;;20.00;99.90;;;;;;5023865;28;20025;-88
2021/07/12 10:29:43;;;;;;;0.08;0.08;;;19.70;99.90;;;;;;5049785;28;20032;-86
2021/07/12 10:32:14;;;;;;;0.00;0.00;;;20.10;99.90;;;;;;5048506;28;20467;-87
2021/07/12 10:34:52;;;;;;;0.00;0.00;;;20.00;99.90;;;;;;5047325;28;20412;-88
2021/07/12 10:37:28;;;;;;;0.03;0.03;;;20.00;99.90;;;;;;5011708;28;20109;-88
2021/07/12 10:40:08;;;;;;;0.20;0.20;;;20.30;99.90;;;;;;5013028;28;20092;-87
2021/07/12 10:42:43;;;;;;;0.03;0.03;;;20.30;99.90;;;;;;5022952;28;20022;-87
2021/07/12 10:45:12;;;;;;;0.10;0.10;;;21.10;99.90;;;;;;5009826;28;20096;-87
2021/07/12 10:47:43;;;;;;;0.10;0.10;;;21.30;99.90;;;;;;5011710;28;20116;-89
2021/07/12 10:50:38;;;;;;;0.10;0.10;;;20.80;99.90;;;;;;5018144;28;20121;-88
2021/07/12 10:53:24;;;;;;;0.20;0.20;;;21.00;99.90;;;;;;5030994;28;20097;-88
2021/07/12 10:55:58;;;;;;;0.00;0.00;;;20.60;99.90;;;;;;5019702;28;20076;-88
2021/07/12 10:58:27;;;;;;;0.10;0.10;;;20.90;99.90;;;;;;5033373;28;20038;-88
2021/07/12 11:00:55;;;;;;;0.10;0.10;;;20.90;99.90;;;;;;5032005;28;20053;-87
2021/07/12 11:03:34;;;;;;;0.10;0.10;;;20.40;99.90;;;;;;5032815;28;20033;-86
2021/07/12 11:06:04;;;;;;;0.13;0.13;;;20.80;99.90;;;;;;5039422;28;20094;-86
2021/07/12 11:08:57;;;;;;;0.10;0.10;;;20.30;99.90;;;;;;5012339;28;20032;-86
2021/07/12 11:11:23;;;;;;;0.00;0.00;;;20.40;99.90;;;;;;5011099;28;20033;-86
2021/07/12 11:14:00;;;;;;;0.00;0.00;;;20.00;99.90;;;;;;5017356;28;20402;-86
2021/07/12 11:16:46;;;;;;;0.35;0.25;;;19.20;99.90;;;;;;5029851;28;20053;-85
2021/07/12 11:19:33;;;;;;;0.17;0.15;;;18.90;99.90;;;;;;5024702;28;20108;-85
2021/07/12 11:22:14;;;;;;;0.00;0.00;;;18.80;99.90;;;;;;5026886;28;20030;-85
2021/07/12 11:25:01;;;;;;;0.10;0.10;;;19.40;99.90;;;;;;5039089;28;20033;-86
2021/07/12 11:27:40;;;;;;;0.35;0.35;;;19.40;99.90;;;;;;5038813;28;20037;-86
2021/07/12 11:30:25;;;;;;;0.10;0.10;;;19.10;99.90;;;;;;5028646;28;20025;-86
2021/07/12 11:32:51;;;;;;;0.05;0.05;;;19.00;99.90;;;;;;5029958;28;20040;-88
2021/07/12 11:35:17;;;;;;;0.00;0.00;;;18.60;99.90;;;;;;5018643;28;20030;-89
2021/07/12 11:37:43;;;;;;;0.00;0.00;;;18.60;71.40;;;;;;5016731;28;20029;-88
2021/07/12 11:40:10;;;;;;;0.07;0.07;;;18.40;99.90;;;;;;5030828;28;20687;-89
2021/07/12 11:42:39;;;;;;;0.00;0.00;;;18.30;50.80;;;;;;5024051;28;20110;-88
2021/07/12 11:45:07;;;;;;;0.20;0.20;;;18.30;99.90;;;;;;5020313;28;20112;-87
2021/07/12 11:47:44;;;;;;;0.30;0.15;;;17.70;1.00;;;;;;5014669;28;20029;-88
2021/07/12 11:50:14;;;;;;;0.32;0.32;;;17.80;99.90;;;;;;5025795;28;20108;-88
2021/07/12 11:52:49;;;;;;;0.15;0.15;;;17.80;99.90;;;;;;5019053;28;20053;-87
2021/07/12 11:55:24;;;;;;;0.20;0.20;;;17.70;99.90;;;;;;5030981;28;20041;-87
2021/07/12 11:57:52;;;;;;;0.00;0.00;;;18.20;99.90;;;;;;5012881;28;20036;-88
2021/07/12 12:00:27;;;;;;;0.10;0.10;;;18.50;99.90;;;;;;5022599;28;20027;-88
2021/07/12 12:03:18;;;;;;;0.10;0.10;;;18.30;99.90;;;;;;5024973;28;20733;-88
2021/07/12 12:05:46;;;;;;;0.22;0.22;;;18.50;1.00;;;;;;5016598;28;20683;-88
2021/07/12 12:08:18;;;;;;;0.45;0.20;;;18.90;99.90;;;;;;5026848;28;20022;-89
2021/07/12 12:10:45;;;;;;;0.00;0.00;;;19.30;99.90;;;;;;5025843;28;20025;-91
2021/07/12 12:13:19;;;;;;;0.00;0.00;;;18.90;99.90;;;;;;5016359;28;20030;-90
2021/07/12 12:15:47;;;;;;;0.38;0.30;;;18.30;99.90;;;;;;5018878;28;20072;-90
2021/07/12 12:18:39;;;;;;;0.00;0.00;;;18.30;99.90;;;;;;5018558;28;20026;-89
2021/07/12 12:21:06;;;;;;;0.47;0.30;;;18.50;99.90;;;;;;5030333;28;20040;-89
2021/07/12 12:23:35;;;;;;;0.00;0.00;;;18.40;99.90;;;;;;5020561;28;20037;-89
2021/07/12 12:26:01;;;;;;;0.30;0.30;;;17.20;99.90;;;;;;5021674;28;20069;-88
2021/07/12 12:28:38;;;;;;;1.60;1.30;;;18.30;99.90;;;;;;5013466;28;20046;-89
2021/07/12 12:31:07;;;;;;;0.00;0.00;;;17.50;99.90;;;;;;5020345;28;20036;-89
2021/07/12 12:33:35;;;;;;;0.20;0.20;;;17.20;99.90;;;;;;5018592;28;20565;-88
2021/07/12 12:36:05;;;;;;;0.00;0.00;;;17.40;99.90;;;;;;5021799;28;20037;-88
2021/07/12 12:38:31;;;;;;;0.13;0.13;;;17.40;99.90;;;;;;5011324;28;20125;-88
2021/07/12 12:41:08;;;;;;;0.77;0.60;;;17.50;99.90;;;;;;5021022;28;20529;-87
2021/07/12 12:43:38;;;;;;;0.10;0.10;;;17.70;99.90;;;;;;5013640;28;20095;-88
2021/07/12 12:46:05;;;;;;;0.28;0.28;;;17.70;99.90;;;;;;5019267;28;20022;-88
2021/07/12 12:48:41;;;;;;;0.10;0.10;;;17.70;99.90;;;;;;5037587;28;20034;-89
2021/07/12 12:51:26;;;;;;;0.00;0.00;;;17.70;99.90;;;;;;5018897;28;20034;-88
2021/07/12 12:54:05;;;;;;;0.00;0.00;;;17.90;99.90;;;;;;5022968;28;20046;-88
2021/07/12 12:56:30;;;;;;;0.10;0.10;;;17.90;99.90;;;;;;5018807;28;20100;-88
2021/07/12 12:58:58;;;;;;;0.37;0.27;;;17.90;99.90;;;;;;5020362;28;20136;-89
2021/07/12 13:01:36;;;;;;;0.10;0.10;;;17.90;99.90;;;;;;5022664;28;20033;-89
2021/07/12 13:04:20;;;;;;;8.77;0.30;;;17.80;99.90;;;;;;5030187;28;20025;-89